createdAt,value
2018-11-29T00:00:30.511Z,27.90
2018-11-29T00:02:58.935Z,29.33
2018-11-29T00:05:27.322Z,29.63
2018-11-29T00:07:55.716Z,29.80
2018-11-29T00:10:24.162Z,26.97
2018-11-29T00:12:52.926Z,31.90
2018-11-29T00:15:21.295Z,33.70
2018-11-29T00:17:49.769Z,30.03
2018-11-29T00:20:20.030Z,31.07
2018-11-29T00:22:49.361Z,32.83
2018-11-29T00:25:18.495Z,29.33
2018-11-29T00:27:47.222Z,33.50
2018-11-29T00:30:23.604Z,30.47
2018-11-29T00:32:55.623Z,34.93
2018-11-29T00:35:24.032Z,27.40
2018-11-29T00:37:52.408Z,29.47
2018-11-29T00:40:22.672Z,28.50
2018-11-29T00:42:51.305Z,30.27
2018-11-29T00:45:22.478Z,27.63
2018-11-29T00:47:51.219Z,27.63
2018-11-29T00:50:20.214Z,29.07
2018-11-29T00:52:49.747Z,30.07
2018-11-29T00:55:22.149Z,31.93
2018-11-29T00:57:50.805Z,28.43
2018-11-29T01:00:21.179Z,28.27
2018-11-29T01:02:49.920Z,28.63
2018-11-29T01:05:18.319Z,30.20
2018-11-29T01:07:46.759Z,29.90
2018-11-29T01:10:16.822Z,30.00
2018-11-29T01:12:45.840Z,26.67
2018-11-29T01:15:17.104Z,27.70
2018-11-29T01:17:46.440Z,27.80
2018-11-29T01:20:16.623Z,27.80
2018-11-29T01:22:45.075Z,28.70
2018-11-29T01:25:14.263Z,28.33
2018-11-29T01:27:43.628Z,29.07
2018-11-29T01:30:15.918Z,31.47
2018-11-29T01:32:44.513Z,28.70
2018-11-29T01:35:16.074Z,28.33
2018-11-29T01:37:44.492Z,28.67
2018-11-29T01:40:20.622Z,27.93
2018-11-29T01:42:51.265Z,27.30
2018-11-29T01:45:19.644Z,31.30
2018-11-29T01:47:48.068Z,30.37
2018-11-29T01:50:16.637Z,27.97
2018-11-29T01:52:45.016Z,31.80
2018-11-29T01:55:13.466Z,31.53
2018-11-29T01:57:41.870Z,31.70
2018-11-29T02:00:14.551Z,29.17
2018-11-29T02:02:43.206Z,32.03
2018-11-29T02:05:12.087Z,30.37
2018-11-29T02:07:40.476Z,30.87
2018-11-29T02:10:18.085Z,29.50
2018-11-29T02:12:46.531Z,31.70
2018-11-29T02:15:14.947Z,29.33
2018-11-29T02:17:43.396Z,30.80
2018-11-29T02:20:19.114Z,32.90
2018-11-29T02:22:48.026Z,32.67
2018-11-29T02:25:16.422Z,33.03
2018-11-29T02:27:44.827Z,33.53
2018-11-29T02:30:15.922Z,32.80
2018-11-29T02:32:44.340Z,32.70
2018-11-29T02:35:12.718Z,35.50
2018-11-29T02:37:41.110Z,33.73
2018-11-29T02:40:11.121Z,35.67
2018-11-29T02:42:39.962Z,34.83
2018-11-29T02:45:16.562Z,36.20
2018-11-29T02:47:44.935Z,35.97
2018-11-29T02:50:13.355Z,33.27
2018-11-29T02:52:41.726Z,33.33
2018-11-29T02:55:11.189Z,34.23
2018-11-29T02:57:39.920Z,31.73
2018-11-29T03:00:15.448Z,35.20
2018-11-29T03:02:43.994Z,31.93
2018-11-29T03:05:12.493Z,33.93
2018-11-29T03:07:40.911Z,33.93
2018-11-29T03:10:10.487Z,31.50
2018-11-29T03:12:38.855Z,32.90
2018-11-29T03:15:11.633Z,33.80
2018-11-29T03:17:40.899Z,34.10
2018-11-29T03:20:10.702Z,34.40
2018-11-29T03:22:39.131Z,32.73
2018-11-29T03:25:09.686Z,36.40
2018-11-29T03:27:38.086Z,33.90
2018-11-29T03:30:09.351Z,33.47
2018-11-29T03:32:37.762Z,34.27
2018-11-29T03:35:06.354Z,33.53
2018-11-29T03:37:34.778Z,32.67
2018-11-29T03:40:03.946Z,34.90
2018-11-29T03:42:32.322Z,37.43
2018-11-29T03:45:00.711Z,37.70
2018-11-29T03:47:29.114Z,37.37
2018-11-29T03:49:57.496Z,38.40
2018-11-29T03:52:25.987Z,41.70
2018-11-29T03:54:54.412Z,40.00
2018-11-29T03:57:22.792Z,39.67
2018-11-29T03:59:51.167Z,39.97
2018-11-29T04:02:19.642Z,39.10
2018-11-29T04:04:48.064Z,41.03
2018-11-29T04:07:16.443Z,39.60
2018-11-29T04:09:44.815Z,41.03
2018-11-29T04:12:13.192Z,38.07
2018-11-29T04:14:41.595Z,39.23
2018-11-29T04:17:09.991Z,40.80
2018-11-29T04:19:38.402Z,38.70
2018-11-29T04:22:06.791Z,37.70
2018-11-29T04:24:35.159Z,39.17
2018-11-29T04:27:03.560Z,41.00
2018-11-29T04:29:31.923Z,37.27
2018-11-29T04:32:00.308Z,40.50
2018-11-29T04:34:28.674Z,42.53
2018-11-29T04:36:57.151Z,37.90
2018-11-29T04:39:25.578Z,37.13
2018-11-29T04:41:53.944Z,39.87
2018-11-29T04:44:22.324Z,35.70
2018-11-29T04:46:51.531Z,40.53
2018-11-29T04:49:19.918Z,32.50
2018-11-29T04:51:48.332Z,36.70
2018-11-29T04:54:16.715Z,35.93
2018-11-29T04:56:45.231Z,37.83
2018-11-29T04:59:13.610Z,36.27
2018-11-29T05:01:41.976Z,37.40
2018-11-29T05:04:10.390Z,33.30
2018-11-29T05:06:38.813Z,35.97
2018-11-29T05:09:10.630Z,35.77
2018-11-29T05:11:39.224Z,40.23
2018-11-29T05:14:07.631Z,36.80
2018-11-29T05:16:36.092Z,37.93
2018-11-29T05:19:04.596Z,39.37
2018-11-29T05:21:32.969Z,39.10
2018-11-29T05:24:01.381Z,37.73
2018-11-29T05:26:29.763Z,39.80
2018-11-29T05:28:58.145Z,38.53
2018-11-29T05:31:26.611Z,36.20
2018-11-29T05:33:55.003Z,38.00
2018-11-29T05:36:23.383Z,36.03
2018-11-29T05:38:51.741Z,36.57
2018-11-29T05:41:20.131Z,39.17
2018-11-29T05:43:48.509Z,37.23
2018-11-29T05:46:16.943Z,40.87
2018-11-29T05:48:45.382Z,38.00
2018-11-29T05:51:14.374Z,38.30
2018-11-29T05:53:42.745Z,36.87
2018-11-29T05:56:11.127Z,40.20
2018-11-29T05:58:39.515Z,35.10
2018-11-29T06:01:15.816Z,40.33
2018-11-29T06:03:44.758Z,37.60
2018-11-29T06:06:13.142Z,39.37
2018-11-29T06:08:41.539Z,36.47
2018-11-29T06:11:09.921Z,39.90
2018-11-29T06:13:38.299Z,38.80
2018-11-29T06:16:06.728Z,39.77
2018-11-29T06:18:35.146Z,38.67
2018-11-29T06:21:03.662Z,39.00
2018-11-29T06:23:32.024Z,39.17
2018-11-29T06:26:00.402Z,38.07
2018-11-29T06:28:28.782Z,37.57
2018-11-29T06:30:57.237Z,36.37
2018-11-29T06:33:25.633Z,39.10
2018-11-29T06:35:54.029Z,36.00
2018-11-29T06:38:22.391Z,39.57
2018-11-29T06:40:50.785Z,37.77
2018-11-29T06:43:19.279Z,33.87
2018-11-29T06:45:47.691Z,32.93
2018-11-29T06:48:16.067Z,36.97
2018-11-29T06:50:44.450Z,35.60
2018-11-29T06:53:18.151Z,36.27
2018-11-29T06:55:46.658Z,36.50
2018-11-29T06:58:15.610Z,35.60
2018-11-29T07:00:43.998Z,34.17
2018-11-29T07:03:12.418Z,37.23
2018-11-29T07:05:40.789Z,35.80
2018-11-29T07:08:09.179Z,37.97
2018-11-29T07:10:37.554Z,36.73
2018-11-29T07:13:07.323Z,35.17
2018-11-29T07:15:35.736Z,36.53
2018-11-29T07:18:04.146Z,35.43
2018-11-29T07:20:32.564Z,35.20
2018-11-29T07:23:00.979Z,37.00
2018-11-29T07:25:29.371Z,33.80
2018-11-29T07:27:57.785Z,34.93
2018-11-29T07:30:26.211Z,35.73
2018-11-29T07:32:54.600Z,34.77
2018-11-29T07:35:26.362Z,32.47
2018-11-29T07:37:54.756Z,34.73
2018-11-29T07:40:23.165Z,35.53
2018-11-29T07:42:53.154Z,36.90
2018-11-29T07:45:21.947Z,32.57
2018-11-29T07:47:50.390Z,33.73
2018-11-29T07:50:21.071Z,37.50
2018-11-29T07:52:49.454Z,33.43
2018-11-29T07:55:19.875Z,34.50
2018-11-29T07:57:49.539Z,34.47
2018-11-29T08:00:18.024Z,31.93
2018-11-29T08:02:46.387Z,34.60
2018-11-29T08:05:15.643Z,31.77
2018-11-29T08:07:48.179Z,33.10
2018-11-29T08:10:17.475Z,33.30
2018-11-29T08:12:45.878Z,33.83
2018-11-29T08:15:15.984Z,33.53
2018-11-29T08:17:44.431Z,32.80
2018-11-29T08:20:20.847Z,33.43
2018-11-29T08:22:49.353Z,33.93
2018-11-29T08:25:17.770Z,36.97
2018-11-29T08:27:46.163Z,32.70
2018-11-29T08:30:15.570Z,36.30
2018-11-29T08:32:44.011Z,33.67
2018-11-29T08:35:15.926Z,31.93
2018-11-29T08:37:45.434Z,32.27
2018-11-29T08:40:16.239Z,33.70
2018-11-29T08:42:44.660Z,31.30
2018-11-29T08:45:13.057Z,32.67
2018-11-29T08:47:41.442Z,33.53
2018-11-29T08:50:13.473Z,34.13
2018-11-29T08:52:42.879Z,31.73
2018-11-29T08:55:13.291Z,30.80
2018-11-29T08:57:41.709Z,32.43
2018-11-29T09:00:25.818Z,30.40
2018-11-29T09:02:54.251Z,32.43
2018-11-29T09:05:22.702Z,31.30
2018-11-29T09:07:51.118Z,29.50
2018-11-29T09:10:23.266Z,28.70
2018-11-29T09:12:52.312Z,32.40
2018-11-29T09:15:20.745Z,29.10
2018-11-29T09:17:49.491Z,31.77
2018-11-29T09:20:25.295Z,29.37
2018-11-29T09:22:53.675Z,31.33
2018-11-29T09:25:22.878Z,32.73
2018-11-29T09:27:51.291Z,29.47
2018-11-29T09:30:21.718Z,29.73
2018-11-29T09:32:51.253Z,29.37
2018-11-29T09:35:19.691Z,29.53
2018-11-29T09:37:48.571Z,31.77
2018-11-29T09:40:17.607Z,30.10
2018-11-29T09:42:46.257Z,29.93
2018-11-29T09:45:16.790Z,28.53
2018-11-29T09:47:46.587Z,31.37
2018-11-29T09:50:15.823Z,31.60
2018-11-29T09:52:44.278Z,30.97
2018-11-29T09:55:13.808Z,28.03
2018-11-29T09:57:42.890Z,30.33
2018-11-29T10:00:18.473Z,32.27
2018-11-29T10:02:56.560Z,28.70
2018-11-29T10:05:24.979Z,29.47
2018-11-29T10:07:53.375Z,29.30
2018-11-29T10:10:22.014Z,29.77
2018-11-29T10:12:50.388Z,31.53
2018-11-29T10:15:18.775Z,30.53
2018-11-29T10:17:47.189Z,33.60
2018-11-29T10:20:15.606Z,29.33
2018-11-29T10:22:44.021Z,31.47
2018-11-29T10:25:13.650Z,29.47
2018-11-29T10:27:47.672Z,28.10
2018-11-29T10:30:19.671Z,29.07
2018-11-29T10:32:48.123Z,29.80
2018-11-29T10:35:16.506Z,30.87
2018-11-29T10:37:44.897Z,30.60
2018-11-29T10:40:13.314Z,26.47
2018-11-29T10:42:41.748Z,26.80
2018-11-29T10:45:12.723Z,27.57
2018-11-29T10:47:41.628Z,25.60
2018-11-29T10:50:12.214Z,27.53
2018-11-29T10:52:40.740Z,26.33
2018-11-29T10:55:18.063Z,26.47
2018-11-29T10:57:46.490Z,26.67
2018-11-29T11:00:29.420Z,25.37
2018-11-29T11:03:33.184Z,24.07
2018-11-29T11:06:01.555Z,22.77
2018-11-29T11:08:29.964Z,22.33
2018-11-29T11:10:58.412Z,24.90
2018-11-29T11:13:27.034Z,24.90
2018-11-29T11:15:55.412Z,22.97
2018-11-29T11:18:23.826Z,22.90
2018-11-29T11:20:52.236Z,22.00
2018-11-29T11:23:20.655Z,22.27
2018-11-29T11:25:49.081Z,20.90
2018-11-29T11:28:17.493Z,22.43
2018-11-29T11:30:45.924Z,20.43
2018-11-29T11:33:14.425Z,21.67
2018-11-29T11:35:42.823Z,21.53
2018-11-29T11:38:11.210Z,20.13
2018-11-29T11:40:39.630Z,22.27
2018-11-29T11:43:08.323Z,22.70
2018-11-29T11:45:36.753Z,20.13
2018-11-29T11:48:05.552Z,21.03
2018-11-29T11:50:33.959Z,22.53
2018-11-29T11:53:02.385Z,22.17
2018-11-29T11:55:30.806Z,20.57
2018-11-29T11:57:59.207Z,23.30
2018-11-29T12:00:28.895Z,24.53
2018-11-29T12:02:59.571Z,23.33
2018-11-29T12:05:28.148Z,22.43
2018-11-29T12:07:56.562Z,20.93
2018-11-29T12:10:25.095Z,21.43
2018-11-29T12:12:53.556Z,21.17
2018-11-29T12:15:22.000Z,22.43
2018-11-29T12:17:50.465Z,23.07
2018-11-29T12:20:19.775Z,21.73
2018-11-29T12:22:48.220Z,23.90
2018-11-29T12:25:19.651Z,19.43
2018-11-29T12:27:48.176Z,22.07
2018-11-29T12:30:33.690Z,19.43
2018-11-29T12:33:04.055Z,20.77
2018-11-29T12:35:32.671Z,21.80
2018-11-29T12:38:01.060Z,21.07
2018-11-29T12:40:29.520Z,19.20
2018-11-29T12:42:58.818Z,20.67
2018-11-29T12:45:27.280Z,19.10
2018-11-29T12:47:55.712Z,20.30
2018-11-29T12:50:25.367Z,19.30
2018-11-29T12:52:53.848Z,17.23
2018-11-29T12:55:23.513Z,17.30
2018-11-29T12:58:04.691Z,17.47
2018-11-29T13:00:23.413Z,18.00
2018-11-29T13:02:54.790Z,19.43
2018-11-29T13:05:23.251Z,17.47
2018-11-29T13:07:51.766Z,16.50
2018-11-29T13:10:21.416Z,16.83
2018-11-29T13:12:49.831Z,17.33
2018-11-29T13:15:20.788Z,16.53
2018-11-29T13:17:49.123Z,15.93
2018-11-29T13:20:17.936Z,17.97
2018-11-29T13:22:46.331Z,17.43
2018-11-29T13:25:16.714Z,15.73
2018-11-29T13:27:45.267Z,16.50
2018-11-29T13:30:16.550Z,16.33
2018-11-29T13:32:45.134Z,17.13
2018-11-29T13:35:17.348Z,14.87
2018-11-29T13:37:52.958Z,16.13
2018-11-29T13:40:21.338Z,15.70
2018-11-29T13:42:49.948Z,17.70
2018-11-29T13:45:18.363Z,16.97
2018-11-29T13:47:46.855Z,15.70
2018-11-29T13:50:16.144Z,15.77
2018-11-29T13:52:44.759Z,15.90
2018-11-29T13:55:14.565Z,15.80
2018-11-29T13:57:47.963Z,15.33
2018-11-29T14:00:19.580Z,15.77
2018-11-29T14:02:52.361Z,15.30
2018-11-29T14:05:20.767Z,17.10
2018-11-29T14:07:49.190Z,16.13
2018-11-29T14:10:19.639Z,17.50
2018-11-29T14:12:49.068Z,14.13
2018-11-29T14:15:19.431Z,15.17
2018-11-29T14:17:47.963Z,15.13
2018-11-29T14:20:16.397Z,14.03
2018-11-29T14:22:44.848Z,14.33
2018-11-29T14:25:14.111Z,16.43
2018-11-29T14:27:44.567Z,16.33
2018-11-29T14:30:21.943Z,14.23
2018-11-29T14:32:50.447Z,15.43
2018-11-29T14:35:18.897Z,16.30
2018-11-29T14:37:47.363Z,14.67
2018-11-29T14:40:19.009Z,14.20
2018-11-29T14:42:47.427Z,14.47
2018-11-29T14:45:17.119Z,14.70
2018-11-29T14:47:45.567Z,14.43
2018-11-29T14:50:20.602Z,15.30
2018-11-29T14:52:49.048Z,13.27
2018-11-29T14:55:24.255Z,14.30
2018-11-29T14:57:52.717Z,14.43
2018-11-29T15:00:21.159Z,13.73
2018-11-29T15:02:49.570Z,14.00
2018-11-29T15:05:22.412Z,14.20
2018-11-29T15:07:50.842Z,16.67
2018-11-29T15:10:19.335Z,13.17
2018-11-29T15:12:47.790Z,13.13
2018-11-29T15:15:16.259Z,12.47
2018-11-29T15:17:45.373Z,12.87
2018-11-29T15:20:24.068Z,13.23
2018-11-29T15:22:52.486Z,12.37
2018-11-29T15:25:21.830Z,14.10
2018-11-29T15:27:50.304Z,11.97
2018-11-29T15:30:20.905Z,13.43
2018-11-29T15:32:49.436Z,11.90
2018-11-29T15:35:17.951Z,11.40
2018-11-29T15:37:46.453Z,13.33
2018-11-29T15:40:16.843Z,11.83
2018-11-29T15:42:45.516Z,14.17
2018-11-29T15:45:18.231Z,11.43
2018-11-29T15:47:46.742Z,11.93
2018-11-29T15:50:15.910Z,11.27
2018-11-29T15:52:44.266Z,10.80
2018-11-29T15:55:14.794Z,14.13
2018-11-29T15:57:43.464Z,13.53
2018-11-29T16:00:16.202Z,12.50
2018-11-29T16:02:45.399Z,12.97
2018-11-29T16:05:13.814Z,12.00
2018-11-29T16:07:42.641Z,13.00
2018-11-29T16:10:12.213Z,13.53
2018-11-29T16:12:40.646Z,11.63
2018-11-29T16:15:13.064Z,11.40
2018-11-29T16:17:42.097Z,12.67
2018-11-29T16:20:18.867Z,13.73
2018-11-29T16:22:47.328Z,15.57
2018-11-29T16:25:15.799Z,11.17
2018-11-29T16:27:44.230Z,12.17
2018-11-29T16:30:20.394Z,13.63
2018-11-29T16:32:48.841Z,15.20
2018-11-29T16:35:17.254Z,13.27
2018-11-29T16:37:45.719Z,11.00
2018-11-29T16:40:14.219Z,12.87
2018-11-29T16:42:42.622Z,12.63
2018-11-29T16:45:13.105Z,10.17
2018-11-29T16:47:42.124Z,11.47
2018-11-29T16:50:12.006Z,11.70
2018-11-29T16:52:40.421Z,10.33
2018-11-29T16:55:10.594Z,9.90
2018-11-29T16:57:40.427Z,10.90
2018-11-29T17:00:15.654Z,11.20
2018-11-29T17:02:44.234Z,11.10
2018-11-29T17:05:14.441Z,12.57
2018-11-29T17:07:42.925Z,10.97
2018-11-29T17:10:14.460Z,10.40
2018-11-29T17:12:44.439Z,12.70
2018-11-29T17:15:15.364Z,11.13
2018-11-29T17:17:43.957Z,9.47
2018-11-29T17:20:14.182Z,13.23
2018-11-29T17:22:42.596Z,11.47
2018-11-29T17:25:12.084Z,11.43
2018-11-29T17:27:40.541Z,10.87
2018-11-29T17:30:28.205Z,11.77
2018-11-29T17:32:59.451Z,13.67
2018-11-29T17:35:29.872Z,9.07
2018-11-29T17:37:59.540Z,9.00
2018-11-29T17:40:28.031Z,9.37
2018-11-29T17:42:57.146Z,9.83
2018-11-29T17:45:30.564Z,8.33
2018-11-29T17:48:01.496Z,10.60
2018-11-29T17:50:33.515Z,8.27
2018-11-29T17:53:02.048Z,9.13
2018-11-29T17:55:30.532Z,7.87
2018-11-29T17:57:59.099Z,9.20
2018-11-29T18:00:32.143Z,9.10
2018-11-29T18:03:00.585Z,9.70
2018-11-29T18:05:29.188Z,8.97
2018-11-29T18:07:57.693Z,12.50
2018-11-29T18:10:28.520Z,8.53
2018-11-29T18:12:58.503Z,9.83
2018-11-29T18:15:28.568Z,8.40
2018-11-29T18:17:57.004Z,8.70
2018-11-29T18:20:25.523Z,8.90
2018-11-29T18:22:54.095Z,8.90
2018-11-29T18:25:22.653Z,8.77
2018-11-29T18:27:52.460Z,7.27
2018-11-29T18:30:21.915Z,9.17
2018-11-29T18:32:50.331Z,8.13
2018-11-29T18:35:19.633Z,10.87
2018-11-29T18:37:48.029Z,11.90
2018-11-29T18:40:21.109Z,10.70
2018-11-29T18:42:54.259Z,11.87
2018-11-29T18:45:22.739Z,8.83
2018-11-29T18:47:52.030Z,8.27
2018-11-29T18:50:27.763Z,10.40
2018-11-29T18:52:56.302Z,9.03
2018-11-29T18:55:25.894Z,8.20
2018-11-29T18:57:55.656Z,9.27
2018-11-29T19:00:27.779Z,11.03
2018-11-29T19:02:57.054Z,9.53
2018-11-29T19:05:25.223Z,9.03
2018-11-29T19:07:53.676Z,8.07
2018-11-29T19:10:24.841Z,7.47
2018-11-29T19:13:11.613Z,6.90
2018-11-29T19:15:40.118Z,8.60
2018-11-29T19:18:10.646Z,6.73
2018-11-29T19:20:38.331Z,7.27
2018-11-29T19:23:06.796Z,7.20
2018-11-29T19:25:35.458Z,8.00
2018-11-29T19:28:03.948Z,8.13
2018-11-29T19:30:32.743Z,7.03
2018-11-29T19:33:04.341Z,7.87
2018-11-29T19:35:33.168Z,8.23
2018-11-29T19:38:02.195Z,8.63
2018-11-29T19:40:30.737Z,7.57
2018-11-29T19:42:59.168Z,7.67
2018-11-29T19:45:27.604Z,7.77
2018-11-29T19:47:56.116Z,8.03
2018-11-29T19:50:24.609Z,8.37
2018-11-29T19:52:54.777Z,9.37
2018-11-29T19:55:25.396Z,11.10
2018-11-29T19:57:54.202Z,9.37
2018-11-29T20:00:22.935Z,9.07
2018-11-29T20:02:52.926Z,7.53
2018-11-29T20:05:22.235Z,8.50
2018-11-29T20:07:50.807Z,7.50
2018-11-29T20:10:19.859Z,9.00
2018-11-29T20:12:53.859Z,8.57
2018-11-29T20:15:22.400Z,8.13
2018-11-29T20:17:51.048Z,9.43
2018-11-29T20:20:19.504Z,7.50
2018-11-29T20:22:47.974Z,8.43
2018-11-29T20:25:17.583Z,7.53
2018-11-29T20:27:46.265Z,7.00
2018-11-29T20:30:17.183Z,9.23
2018-11-29T20:32:46.086Z,10.10
2018-11-29T20:35:14.644Z,8.93
2018-11-29T20:37:43.096Z,9.20
2018-11-29T20:40:15.629Z,8.27
2018-11-29T20:42:44.883Z,11.10
2018-11-29T20:45:21.517Z,9.03
2018-11-29T20:47:50.740Z,10.13
2018-11-29T20:50:20.927Z,8.63
2018-11-29T20:52:50.751Z,8.77
2018-11-29T20:55:24.932Z,7.93
2018-11-29T20:57:53.383Z,10.80
2018-11-29T21:00:21.858Z,8.90
2018-11-29T21:02:50.682Z,8.73
2018-11-29T21:05:20.573Z,8.83
2018-11-29T21:07:50.753Z,8.50
2018-11-29T21:10:23.482Z,7.80
2018-11-29T21:12:52.083Z,8.40
2018-11-29T21:15:20.837Z,9.60
2018-11-29T21:17:49.457Z,7.37
2018-11-29T21:20:19.951Z,6.90
2018-11-29T21:22:49.716Z,6.97
2018-11-29T21:25:22.498Z,7.77
2018-11-29T21:27:51.196Z,7.63
2018-11-29T21:30:19.650Z,8.03
2018-11-29T21:32:49.279Z,6.07
2018-11-29T21:35:20.863Z,6.87
2018-11-29T21:37:49.953Z,7.67
2018-11-29T21:40:24.723Z,7.73
2018-11-29T21:42:53.148Z,7.13
2018-11-29T21:45:21.583Z,8.63
2018-11-29T21:47:50.018Z,7.37
2018-11-29T21:50:18.440Z,7.53
2018-11-29T21:52:46.906Z,7.17
2018-11-29T21:55:15.466Z,7.20
2018-11-29T21:57:43.937Z,7.13
2018-11-29T22:00:15.695Z,8.80
2018-11-29T22:02:45.762Z,7.63
2018-11-29T22:05:14.187Z,10.30
2018-11-29T22:07:42.583Z,9.13
2018-11-29T22:10:11.013Z,7.77
2018-11-29T22:12:39.431Z,8.10
2018-11-29T22:15:09.761Z,8.17
2018-11-29T22:18:41.413Z,7.27
2018-11-29T22:21:09.787Z,7.33
2018-11-29T22:23:39.784Z,7.97
2018-11-29T22:26:13.724Z,6.93
2018-11-29T22:28:42.506Z,9.03
2018-11-29T22:31:10.946Z,6.90
2018-11-29T22:33:40.135Z,8.37
2018-11-29T22:36:08.516Z,8.33
2018-11-29T22:38:37.081Z,7.23
2018-11-29T22:41:05.741Z,6.90
2018-11-29T22:43:34.174Z,7.83
2018-11-29T22:46:02.574Z,7.00
2018-11-29T22:48:30.980Z,6.73
2018-11-29T22:50:59.375Z,8.33
2018-11-29T22:53:27.784Z,6.80
2018-11-29T22:55:56.180Z,7.10
2018-11-29T22:58:24.545Z,7.63
2018-11-29T23:00:53.446Z,7.67
2018-11-29T23:03:22.204Z,8.83
2018-11-29T23:05:50.621Z,8.43
2018-11-29T23:08:19.016Z,8.10
2018-11-29T23:10:47.431Z,7.33
2018-11-29T23:13:15.934Z,6.90
2018-11-29T23:15:44.798Z,7.47
2018-11-29T23:18:13.202Z,9.00
2018-11-29T23:20:41.598Z,6.57
2018-11-29T23:23:09.976Z,7.97
2018-11-29T23:25:38.359Z,6.70
2018-11-29T23:28:07.304Z,7.43
2018-11-29T23:30:35.732Z,6.73
2018-11-29T23:33:04.302Z,7.63
2018-11-29T23:35:32.677Z,9.07
2018-11-29T23:38:01.083Z,8.37
2018-11-29T23:40:29.459Z,7.83
2018-11-29T23:42:57.959Z,7.87
2018-11-29T23:45:26.368Z,8.33
2018-11-29T23:47:54.756Z,7.13
2018-11-29T23:50:23.171Z,6.53
2018-11-29T23:52:51.543Z,6.90
2018-11-29T23:55:21.184Z,7.70
2018-11-29T23:57:49.617Z,6.83
